Forecast Period:  6:00 am 14th January 2020 to 12:00 pm  14th January 2020
Synopsis: A low level trough system is affecting the island.
Forecast: Fair to occasionally cloudy and windy with brief scattered showers

Weather 
Advisory/Warning:

None

Winds: ENE - E at 30 to 40 km/h (19 - 25 mph)
Sea Conditions:

Moderate to rough in open water; northeasterly swells (2.0 m to 3.0 m)

Marine 
Advisory/Warning:

A High-Surf Advisory and a Small-Craft Warning remain in effect due to strong winds and rough seas. Sea-bathers are advised to stay out of the water. Small craft operators should remain in port.

Upcoming Tides:
High: 08:03 am  10:29 pm
Low: 04:09 pm ****

Aviation WX

[Source: ADDS]
METAR
TVSA 171500Z 07011KT 9999 SCT023 28/23 Q1017 =
TVSA 171100Z 1712/1812 07010KT 9999 SCT018
TAF
TVSA 171100Z 1712/1812 07010KT 9999 SCT018 =
SR / SS: 10:31 / 21:58 UTC (Sunrise Sunset 2020-01-17)